Time;durP1;ratioP1;P1;durP2;ratioP2;P2;SDS_P1;SDS_P2;PMS_P1;PMS_P2;Temp;Humidity;BMP_temperature;BMP_pressure;BME280_temperature;BME280_humidity;BME280_pressure;Samples;Min_cycle;Max_cycle;Signal;HPM_P1;HPM_P2
2022/01/07 00:02:03;;;;;;;;;;;-4.80;99.90;;;;;;5093451;28;19953;-72
2022/01/07 00:04:31;;;;;;;;;;;-4.80;99.90;;;;;;5092087;28;19915;-71
2022/01/07 00:06:57;;;;;;;;;;;-4.80;99.90;;;;;;5092958;28;19915;-72
2022/01/07 00:09:22;;;;;;;;;;;-4.90;99.90;;;;;;5093268;28;19908;-72
2022/01/07 00:11:48;;;;;;;;;;;-4.90;99.90;;;;;;5093386;28;19919;-72
2022/01/07 00:14:13;;;;;;;;;;;-5.00;99.90;;;;;;5085119;28;20623;-72
2022/01/07 00:16:39;;;;;;;;;;;-5.00;99.90;;;;;;5089496;28;20007;-72
2022/01/07 00:19:04;;;;;;;;;;;-4.90;99.90;;;;;;5086467;28;19915;-72
2022/01/07 00:21:30;;;;;;;;;;;-4.90;99.90;;;;;;5093345;28;19916;-72
2022/01/07 00:23:55;;;;;;;;;;;-4.90;99.90;;;;;;5092581;28;19908;-72
2022/01/07 00:26:21;;;;;;;;;;;-4.90;99.90;;;;;;5091363;28;19912;-71
2022/01/07 00:28:46;;;;;;;;;;;-4.80;99.90;;;;;;5092721;28;19954;-71
2022/01/07 00:31:12;;;;;;;;;;;-4.80;99.90;;;;;;5092772;28;20339;-72
2022/01/07 00:33:37;;;;;;;;;;;-4.80;99.90;;;;;;5090767;28;19999;-71
2022/01/07 00:36:03;;;;;;;;;;;-4.80;99.90;;;;;;5092500;28;19944;-72
2022/01/07 00:38:30;;;;;;;;;;;-5.10;99.90;;;;;;5092762;28;20295;-72
2022/01/07 00:40:56;;;;;;;;;;;-5.10;99.90;;;;;;5092664;28;20003;-72
2022/01/07 00:43:21;;;;;;;;;;;-5.10;99.90;;;;;;5086786;28;19947;-72
2022/01/07 00:45:47;;;;;;;;;;;-5.30;99.90;;;;;;5085503;28;19916;-71
2022/01/07 00:48:12;;;;;;;;;;;-5.30;99.90;;;;;;5087727;28;19912;-72
2022/01/07 00:50:38;;;;;;;;;;;-5.30;99.90;;;;;;5092114;28;19951;-72
2022/01/07 00:53:03;;;;;;;;;;;-5.20;99.90;;;;;;5092083;28;19997;-71
2022/01/07 00:55:29;;;;;;;;;;;-5.20;99.90;;;;;;5092224;28;19957;-71
2022/01/07 00:57:55;;;;;;;;;;;-5.20;99.90;;;;;;5092203;28;20388;-72
2022/01/07 01:00:23;;;;;;;;;;;-5.20;99.90;;;;;;5092208;28;19923;-71
2022/01/07 01:02:48;;;;;;;;;;;-5.20;99.90;;;;;;5092194;28;19912;-71
2022/01/07 01:05:15;;;;;;;;;;;-5.30;99.90;;;;;;5068164;28;19909;-71
2022/01/07 01:07:41;;;;;;;;;;;-5.40;99.90;;;;;;5092031;28;20352;-71
2022/01/07 01:10:07;;;;;;;;;;;-5.20;99.90;;;;;;5087184;28;19931;-71
2022/01/07 01:12:36;;;;;;;;;;;-5.20;99.90;;;;;;5091177;28;19938;-71
2022/01/07 01:15:03;;;;;;;;;;;-5.20;99.90;;;;;;5089807;28;19916;-70
2022/01/07 01:17:28;;;;;;;;;;;-5.30;99.90;;;;;;5088123;28;19955;-71
2022/01/07 01:19:54;;;;;;;;;;;-5.30;99.90;;;;;;5086884;28;19947;-71
2022/01/07 01:22:19;;;;;;;;;;;-5.40;99.90;;;;;;5091810;28;19912;-71
2022/01/07 01:24:45;;;;;;;;;;;-5.40;99.90;;;;;;5086689;28;19909;-71
2022/01/07 01:27:10;;;;;;;;;;;-5.30;99.90;;;;;;5091364;28;19915;-71
2022/01/07 01:29:37;;;;;;;;;;;-5.30;99.90;;;;;;5087722;28;20015;-71
2022/01/07 01:32:03;;;;;;;;;;;-5.50;99.90;;;;;;5091266;28;19919;-71
2022/01/07 01:34:28;;;;;;;;;;;-5.50;99.90;;;;;;5087148;28;19912;-71
2022/01/07 01:36:54;;;;;;;;;;;-5.60;99.90;;;;;;5090102;28;19943;-71
2022/01/07 01:39:19;;;;;;;;;;;-5.60;99.90;;;;;;5090847;28;19912;-71
2022/01/07 01:41:45;;;;;;;;;;;-5.60;99.90;;;;;;5090806;28;19908;-71
2022/01/07 01:44:11;;;;;;;;;;;-5.50;99.90;;;;;;5090538;28;19908;-71
2022/01/07 01:46:36;;;;;;;;;;;-5.50;99.90;;;;;;5084419;28;19912;-71
2022/01/07 01:49:03;;;;;;;;;;;-5.30;99.90;;;;;;5090726;28;20031;-71
2022/01/07 01:51:28;;;;;;;;;;;-5.30;99.90;;;;;;5090970;28;20286;-71
2022/01/07 01:53:54;;;;;;;;;;;-5.30;99.90;;;;;;5090784;28;19908;-71
2022/01/07 01:56:20;;;;;;;;;;;-5.40;99.90;;;;;;5090245;28;19912;-71
2022/01/07 01:58:45;;;;;;;;;;;-5.40;99.90;;;;;;5091078;28;20285;-71
2022/01/07 02:01:11;;;;;;;;;;;-5.60;99.90;;;;;;5089954;28;19908;-72
2022/01/07 02:03:36;;;;;;;;;;;-5.70;99.90;;;;;;5090575;28;19909;-72
2022/01/07 02:06:02;;;;;;;;;;;-5.50;99.90;;;;;;5091025;28;20023;-72
2022/01/07 02:08:29;;;;;;;;;;;-5.60;99.90;;;;;;5091106;28;19914;-72
2022/01/07 02:10:55;;;;;;;;;;;-5.60;99.90;;;;;;5087803;28;19912;-72
2022/01/07 02:13:20;;;;;;;;;;;-5.70;99.90;;;;;;5090308;28;19916;-72
2022/01/07 02:15:46;;;;;;;;;;;-5.80;99.90;;;;;;5090817;28;19916;-72
2022/01/07 02:18:12;;;;;;;;;;;-5.80;99.90;;;;;;5084477;28;19908;-73
2022/01/07 02:20:37;;;;;;;;;;;-5.70;99.90;;;;;;5091217;28;20049;-72
2022/01/07 02:23:03;;;;;;;;;;;-5.70;99.90;;;;;;5092519;28;20292;-73
2022/01/07 02:25:29;;;;;;;;;;;-5.70;99.90;;;;;;5072713;28;20262;-73
2022/01/07 02:27:55;;;;;;;;;;;-5.60;99.90;;;;;;5094679;28;19908;-72
2022/01/07 02:30:24;;;;;;;;;;;-5.40;99.90;;;;;;5095317;28;19926;-72
2022/01/07 02:32:50;;;;;;;;;;;-5.40;99.90;;;;;;5094805;28;20015;-72
2022/01/07 02:35:16;;;;;;;;;;;-5.30;99.90;;;;;;5094782;28;19954;-72
2022/01/07 02:37:42;;;;;;;;;;;-5.30;99.90;;;;;;5094935;28;19915;-73
2022/01/07 02:40:08;;;;;;;;;;;-5.20;99.90;;;;;;5094825;28;20353;-72
2022/01/07 02:42:34;;;;;;;;;;;-5.10;99.90;;;;;;5091336;28;20505;-71
2022/01/07 02:45:00;;;;;;;;;;;-5.10;99.90;;;;;;5092816;28;19912;-72
2022/01/07 02:47:30;;;;;;;;;;;-5.30;99.90;;;;;;5091503;28;19939;-73
2022/01/07 02:50:04;;;;;;;;;;;-5.50;99.90;;;;;;5091637;28;19999;-72
2022/01/07 02:52:29;;;;;;;;;;;-5.40;99.90;;;;;;5091569;28;20285;-72
2022/01/07 02:54:55;;;;;;;;;;;-5.20;99.90;;;;;;5090955;28;19908;-72
2022/01/07 02:57:20;;;;;;;;;;;-5.30;99.90;;;;;;5088845;28;19909;-72
2022/01/07 02:59:46;;;;;;;;;;;-5.40;99.90;;;;;;5090314;28;20448;-72
2022/01/07 03:02:11;;;;;;;;;;;-5.50;99.90;;;;;;5091038;28;19908;-72
2022/01/07 03:04:37;;;;;;;;;;;-5.60;99.90;;;;;;5093068;28;19908;-72
2022/01/07 03:07:02;;;;;;;;;;;-5.30;99.90;;;;;;5094234;28;20341;-72
2022/01/07 03:09:29;;;;;;;;;;;-4.80;99.90;;;;;;5094126;28;19915;-73
2022/01/07 03:11:55;;;;;;;;;;;-4.70;99.90;;;;;;5094252;28;20387;-72
2022/01/07 03:14:20;;;;;;;;;;;-4.30;99.90;;;;;;5093691;28;20010;-72
2022/01/07 03:16:46;;;;;;;;;;;-4.30;99.90;;;;;;5094478;28;19908;-72
2022/01/07 03:19:12;;;;;;;;;;;-4.10;99.90;;;;;;5094177;28;19912;-72
2022/01/07 03:21:37;;;;;;;;;;;-4.10;99.90;;;;;;5094221;28;19908;-72
2022/01/07 03:24:03;;;;;;;;;;;-4.20;99.90;;;;;;5093516;28;20011;-72
2022/01/07 03:26:28;;;;;;;;;;;-4.00;99.90;;;;;;5094217;28;19915;-72
2022/01/07 03:28:54;;;;;;;;;;;-4.10;99.90;;;;;;5093954;28;19908;-72
2022/01/07 03:31:19;;;;;;;;;;;-4.00;99.90;;;;;;5087676;28;19912;-72
2022/01/07 03:33:45;;;;;;;;;;;-3.70;99.90;;;;;;5072580;28;20353;-72
2022/01/07 03:36:10;;;;;;;;;;;-3.90;99.90;;;;;;5073449;28;19920;-72
2022/01/07 03:38:36;;;;;;;;;;;-3.80;99.90;;;;;;5073698;28;20428;-72
2022/01/07 03:41:02;;;;;;;;;;;-3.90;99.90;;;;;;5073506;28;19914;-72
2022/01/07 03:43:28;;;;;;;;;;;-4.20;99.90;;;;;;5073459;28;19908;-72
2022/01/07 03:45:53;;;;;;;;;;;-4.10;99.90;;;;;;5073410;28;19915;-72
2022/01/07 03:48:19;;;;;;;;;;;-3.90;99.90;;;;;;5073555;28;19912;-72
2022/01/07 03:50:44;;;;;;;;;;;-3.80;99.90;;;;;;5073172;28;19908;-72
2022/01/07 03:53:10;;;;;;;;;;;-3.70;99.90;;;;;;5072901;28;19912;-72
2022/01/07 03:55:35;;;;;;;;;;;-3.70;99.90;;;;;;5073206;28;19909;-71
2022/01/07 03:58:01;;;;;;;;;;;-3.70;99.90;;;;;;5073410;28;19909;-72
2022/01/07 04:00:32;;;;;;;;;;;-3.80;99.90;;;;;;5080050;28;19908;-72
2022/01/07 04:02:57;;;;;;;;;;;-3.90;99.90;;;;;;5073587;28;19952;-71
2022/01/07 04:05:23;;;;;;;;;;;-3.80;99.90;;;;;;5072886;28;20059;-72
2022/01/07 04:07:49;;;;;;;;;;;-3.80;99.90;;;;;;5073131;28;19912;-72
2022/01/07 04:10:15;;;;;;;;;;;-3.70;99.90;;;;;;5072871;28;19908;-72
2022/01/07 04:12:40;;;;;;;;;;;-3.80;99.90;;;;;;5073041;28;19957;-72
2022/01/07 04:15:09;;;;;;;;;;;-3.80;99.90;;;;;;5072218;28;19916;-72
2022/01/07 04:17:36;;;;;;;;;;;-3.80;99.90;;;;;;5072976;28;19915;-72
2022/01/07 04:20:02;;;;;;;;;;;-3.70;99.90;;;;;;5072882;28;20558;-72
2022/01/07 04:22:28;;;;;;;;;;;-3.70;99.90;;;;;;5072811;28;19920;-72
2022/01/07 04:24:54;;;;;;;;;;;-3.60;99.90;;;;;;5072226;28;20396;-72
2022/01/07 04:27:19;;;;;;;;;;;-3.60;99.90;;;;;;5072760;28;19912;-72
2022/01/07 04:29:45;;;;;;;;;;;-3.50;99.90;;;;;;5074213;28;20353;-72
2022/01/07 04:32:10;;;;;;;;;;;-3.50;99.90;;;;;;5079133;28;19976;-72
2022/01/07 04:34:36;;;;;;;;;;;-3.50;99.90;;;;;;5071943;28;19909;-72
2022/01/07 04:37:02;;;;;;;;;;;-3.40;99.90;;;;;;5072471;28;19934;-72
2022/01/07 04:39:27;;;;;;;;;;;-3.30;99.90;;;;;;5072645;28;19981;-72
2022/01/07 04:41:53;;;;;;;;;;;-3.40;99.90;;;;;;5072416;28;19940;-72
2022/01/07 04:44:19;;;;;;;;;;;-3.40;99.90;;;;;;5071876;28;19909;-72
2022/01/07 04:46:45;;;;;;;;;;;-3.40;99.90;;;;;;5071590;28;19975;-72
2022/01/07 04:49:10;;;;;;;;;;;-3.40;99.90;;;;;;5072227;28;20357;-72
2022/01/07 04:51:36;;;;;;;;;;;-3.30;99.90;;;;;;5071982;28;19999;-72
2022/01/07 04:54:01;;;;;;;;;;;-3.30;99.90;;;;;;5071713;28;19931;-72
2022/01/07 04:56:27;;;;;;;;;;;-3.30;99.90;;;;;;5072270;28;19908;-72
2022/01/07 04:58:52;;;;;;;;;;;-3.10;99.90;;;;;;5072239;28;20387;-72
2022/01/07 05:01:18;;;;;;;;;;;-3.00;99.90;;;;;;5079772;28;19916;-73
2022/01/07 05:03:43;;;;;;;;;;;-3.10;99.90;;;;;;5071260;28;19909;-72
2022/01/07 05:06:43;;;;;;;;;;;-3.10;99.90;;;;;;5071788;28;19996;-72
2022/01/07 05:09:00;;;;;;;;;;;-3.10;99.90;;;;;;5071831;28;19912;-72
2022/01/07 05:11:25;;;;;;;;;;;-3.00;99.90;;;;;;5071643;28;19909;-72
2022/01/07 05:13:51;;;;;;;;;;;-3.00;99.90;;;;;;5071364;28;20065;-73
2022/01/07 05:16:16;;;;;;;;;;;-3.00;99.90;;;;;;5071632;28;20465;-72
2022/01/07 05:18:42;;;;;;;;;;;-3.10;99.90;;;;;;5071932;28;19909;-72
2022/01/07 05:21:07;;;;;;;;;;;-3.00;99.90;;;;;;5071660;28;20357;-72
2022/01/07 05:23:33;;;;;;;;;;;-3.10;99.90;;;;;;5071253;28;19995;-72
2022/01/07 05:25:58;;;;;;;;;;;-3.00;99.90;;;;;;5071738;28;19916;-72
2022/01/07 05:28:24;;;;;;;;;;;-3.10;99.90;;;;;;5071963;28;20024;-73
2022/01/07 05:30:49;;;;;;;;;;;-3.00;99.90;;;;;;5079407;28;19937;-72
2022/01/07 05:33:15;;;;;;;;;;;-3.00;99.90;;;;;;5070836;28;19939;-72
2022/01/07 05:35:40;;;;;;;;;;;-3.00;99.90;;;;;;5071542;28;19908;-72
2022/01/07 05:38:06;;;;;;;;;;;-2.90;99.90;;;;;;5071287;28;19962;-72
2022/01/07 05:40:31;;;;;;;;;;;-2.90;99.90;;;;;;5071427;28;19909;-72
2022/01/07 05:42:57;;;;;;;;;;;-2.90;99.90;;;;;;5071145;28;19912;-72
2022/01/07 05:45:23;;;;;;;;;;;-2.90;99.90;;;;;;5071125;28;19908;-72
2022/01/07 05:47:48;;;;;;;;;;;-2.90;99.90;;;;;;5071275;28;19942;-72
2022/01/07 05:50:14;;;;;;;;;;;-2.80;99.90;;;;;;5071304;28;20281;-72
2022/01/07 05:52:39;;;;;;;;;;;-2.90;99.90;;;;;;5071131;28;19942;-72
2022/01/07 05:55:05;;;;;;;;;;;-2.90;99.90;;;;;;5070805;28;19915;-72
2022/01/07 05:57:31;;;;;;;;;;;-2.80;99.90;;;;;;5070877;28;20284;-72
2022/01/07 05:59:57;;;;;;;;;;;-2.80;99.90;;;;;;5055820;28;19909;-72
2022/01/07 06:02:22;;;;;;;;;;;-2.80;99.90;;;;;;5076264;28;19908;-72
2022/01/07 06:04:48;;;;;;;;;;;-2.80;99.90;;;;;;5052428;28;19908;-72
2022/01/07 06:07:13;;;;;;;;;;;-2.90;99.90;;;;;;5053346;28;20018;-72
2022/01/07 06:09:39;;;;;;;;;;;-2.90;99.90;;;;;;5071120;28;19965;-70
2022/01/07 06:12:05;;;;;;;;;;;-2.90;99.90;;;;;;5071435;28;19912;-73
2022/01/07 06:14:30;;;;;;;;;;;-2.90;99.90;;;;;;5071211;28;20473;-71
2022/01/07 06:16:56;;;;;;;;;;;-2.90;99.90;;;;;;5053540;28;19913;-71
2022/01/07 06:19:21;;;;;;;;;;;-3.00;99.90;;;;;;5052872;28;19982;-72
2022/01/07 06:21:47;;;;;;;;;;;-2.90;99.90;;;;;;5053481;28;19916;-71
2022/01/07 06:24:12;;;;;;;;;;;-2.90;99.90;;;;;;5070454;28;19909;-71
2022/01/07 06:26:38;;;;;;;;;;;-2.90;99.90;;;;;;5071170;28;19977;-72
2022/01/07 06:29:04;;;;;;;;;;;-2.90;99.90;;;;;;5072069;28;19909;-72
2022/01/07 06:31:29;;;;;;;;;;;-2.90;99.90;;;;;;5086268;28;19995;-72
2022/01/07 06:33:56;;;;;;;;;;;-2.80;99.90;;;;;;5090424;28;19908;-73
2022/01/07 06:36:22;;;;;;;;;;;-2.90;99.90;;;;;;5091471;28;20275;-72
2022/01/07 06:38:47;;;;;;;;;;;-2.80;99.90;;;;;;5090956;28;19994;-72
2022/01/07 06:41:13;;;;;;;;;;;-2.80;99.90;;;;;;5091049;28;19912;-72
2022/01/07 06:43:39;;;;;;;;;;;-2.80;99.90;;;;;;5090527;28;19908;-72
2022/01/07 06:46:06;;;;;;;;;;;-2.70;99.90;;;;;;5091262;28;19947;-72
2022/01/07 06:48:31;;;;;;;;;;;-2.70;99.90;;;;;;5091227;28;20272;-72
2022/01/07 06:50:56;;;;;;;;;;;-2.70;99.90;;;;;;5091266;28;19915;-72
2022/01/07 06:53:22;;;;;;;;;;;-2.70;99.90;;;;;;5090735;28;19962;-72
2022/01/07 06:55:48;;;;;;;;;;;-2.70;99.90;;;;;;5091078;28;19908;-73
2022/01/07 06:58:13;;;;;;;;;;;-2.60;99.90;;;;;;5091372;28;19908;-72
2022/01/07 07:00:39;;;;;;;;;;;-2.60;99.90;;;;;;5073953;28;19999;-72
2022/01/07 07:03:04;;;;;;;;;;;-2.70;99.90;;;;;;5090551;28;19908;-72
2022/01/07 07:05:30;;;;;;;;;;;-2.70;99.90;;;;;;5073507;28;20373;-72
2022/01/07 07:07:55;;;;;;;;;;;-2.70;99.90;;;;;;5069897;28;19955;-72
2022/01/07 07:10:21;;;;;;;;;;;-2.60;99.90;;;;;;5074308;28;19950;-72
2022/01/07 07:12:47;;;;;;;;;;;-2.60;99.90;;;;;;5074166;28;20393;-73
2022/01/07 07:15:13;;;;;;;;;;;-2.60;99.90;;;;;;5074263;28;19931;-73
2022/01/07 07:17:39;;;;;;;;;;;-2.50;99.90;;;;;;5074297;28;19909;-72
2022/01/07 07:20:04;;;;;;;;;;;-2.50;99.90;;;;;;5074050;28;19996;-72
2022/01/07 07:22:30;;;;;;;;;;;-2.60;99.90;;;;;;5074316;28;19916;-72
2022/01/07 07:24:56;;;;;;;;;;;-2.50;99.90;;;;;;5073697;28;19909;-72
2022/01/07 07:27:21;;;;;;;;;;;-2.50;99.90;;;;;;5074133;28;19908;-72
2022/01/07 07:29:46;;;;;;;;;;;-2.40;99.90;;;;;;5073845;28;19912;-72
2022/01/07 07:32:15;;;;;;;;;;;-2.30;99.90;;;;;;5073862;28;20416;-72
2022/01/07 07:37:07;;;;;;;;;;;-2.30;99.90;;;;;;5074176;28;19909;-72
2022/01/07 07:39:33;;;;;;;;;;;-2.30;99.90;;;;;;5073923;28;19908;-72
2022/01/07 07:41:59;;;;;;;;;;;-2.30;99.90;;;;;;5073656;28;19915;-73
2022/01/07 07:44:24;;;;;;;;;;;-2.30;99.90;;;;;;5073366;28;19969;-72
2022/01/07 07:46:51;;;;;;;;;;;-2.20;99.90;;;;;;5073970;28;20003;-72
2022/01/07 07:49:16;;;;;;;;;;;-2.20;99.90;;;;;;5073757;28;19908;-73
2022/01/07 07:51:42;;;;;;;;;;;-2.10;99.90;;;;;;5073518;28;20254;-73
2022/01/07 07:54:08;;;;;;;;;;;-2.10;99.90;;;;;;5073287;28;19953;-72
2022/01/07 07:56:34;;;;;;;;;;;-2.10;99.90;;;;;;5073855;28;19909;-73
2022/01/07 07:58:59;;;;;;;;;;;-2.10;99.90;;;;;;5074168;28;20313;-73
2022/01/07 08:01:25;;;;;;;;;;;-2.10;99.90;;;;;;5073635;28;20251;-72
2022/01/07 08:03:50;;;;;;;;;;;-2.10;99.90;;;;;;5073054;28;19908;-73
2022/01/07 08:06:16;;;;;;;;;;;-2.10;99.90;;;;;;5073509;28;20276;-72
2022/01/07 08:08:42;;;;;;;;;;;-2.00;99.90;;;;;;5073637;28;19909;-72
2022/01/07 08:11:10;;;;;;;;;;;-1.90;99.90;;;;;;5073254;28;19909;-73
2022/01/07 08:16:20;;;;;;;;;;;-1.80;99.90;;;;;;5073567;28;20403;-73
2022/01/07 08:18:48;;;;;;;;;;;-1.60;99.90;;;;;;5055199;28;19909;-73
2022/01/07 08:21:13;;;;;;;;;;;-1.60;99.90;;;;;;5071971;28;20396;-72
2022/01/07 08:23:39;;;;;;;;;;;-1.60;99.90;;;;;;5072747;28;19908;-72
2022/01/07 08:26:07;;;;;;;;;;;-1.50;99.90;;;;;;5055141;28;19916;-72
2022/01/07 08:28:39;;;;;;;;;;;-1.50;99.90;;;;;;5073491;28;20258;-72
2022/01/07 08:36:15;;;;;;;;;;;-1.30;99.90;;;;;;5072577;28;19915;-73
2022/01/07 08:38:41;;;;;;;;;;;-1.30;99.90;;;;;;5072467;28;19912;-73
2022/01/07 08:41:06;;;;;;;;;;;-1.30;99.90;;;;;;5072562;28;19909;-72
2022/01/07 08:43:32;;;;;;;;;;;-1.30;99.90;;;;;;5071857;28;19908;-72
2022/01/07 08:45:57;;;;;;;;;;;-1.30;99.90;;;;;;5072624;28;19995;-72
2022/01/07 08:48:25;;;;;;;;;;;-1.30;99.90;;;;;;5072602;28;19916;-73
2022/01/07 08:50:50;;;;;;;;;;;-1.30;99.90;;;;;;5072521;28;19915;-73
2022/01/07 08:53:16;;;;;;;;;;;-1.20;99.90;;;;;;5071898;28;20311;-72
2022/01/07 08:55:41;;;;;;;;;;;-1.20;99.90;;;;;;5072770;28;19915;-72
2022/01/07 08:58:07;;;;;;;;;;;-1.30;99.90;;;;;;5072263;28;19908;-72
2022/01/07 09:00:32;;;;;;;;;;;-1.20;99.90;;;;;;5072178;28;20376;-72
2022/01/07 09:02:58;;;;;;;;;;;-1.10;99.90;;;;;;5071724;28;20266;-72
2022/01/07 09:05:24;;;;;;;;;;;-1.10;99.90;;;;;;5072141;28;19909;-72
2022/01/07 09:07:49;;;;;;;;;;;-1.00;99.90;;;;;;5072366;28;19935;-72
2022/01/07 09:10:15;;;;;;;;;;;-0.90;99.90;;;;;;5073138;28;19999;-73
2022/01/07 09:12:40;;;;;;;;;;;-0.80;99.90;;;;;;5072426;28;19982;-72
2022/01/07 09:15:06;;;;;;;;;;;-0.80;99.90;;;;;;5071968;28;19916;-72
2022/01/07 09:17:32;;;;;;;;;;;-0.70;99.90;;;;;;5072434;28;19909;-73
2022/01/07 09:20:01;;;;;;;;;;;-0.60;99.90;;;;;;5072106;28;19908;-72
2022/01/07 09:22:27;;;;;;;;;;;-0.60;99.90;;;;;;5072070;28;19908;-72
2022/01/07 09:24:52;;;;;;;;;;;-0.60;99.90;;;;;;5071775;28;19915;-72
2022/01/07 09:27:18;;;;;;;;;;;-0.50;99.90;;;;;;5072199;28;19915;-72
2022/01/07 09:29:43;;;;;;;;;;;-0.50;99.90;;;;;;5071716;28;19908;-72
2022/01/07 09:32:09;;;;;;;;;;;-0.50;99.90;;;;;;5071262;28;20502;-72
2022/01/07 09:34:35;;;;;;;;;;;-0.60;99.90;;;;;;5071237;28;19955;-72
2022/01/07 09:37:02;;;;;;;;;;;-0.60;99.90;;;;;;5072187;28;20002;-72
2022/01/07 09:39:28;;;;;;;;;;;-0.50;99.90;;;;;;5071639;28;19955;-73
2022/01/07 09:41:53;;;;;;;;;;;-0.50;99.90;;;;;;5072017;28;19944;-72
2022/01/07 09:44:19;;;;;;;;;;;-0.40;99.90;;;;;;5071554;28;20151;-72
2022/01/07 09:46:44;;;;;;;;;;;-0.40;99.90;;;;;;5071679;28;19915;-72
2022/01/07 09:49:10;;;;;;;;;;;-0.30;99.90;;;;;;5071854;28;19991;-72
2022/01/07 09:51:39;;;;;;;;;;;-0.30;99.90;;;;;;5071862;28;19948;-72
2022/01/07 09:54:06;;;;;;;;;;;-0.20;99.90;;;;;;5071551;28;19908;-72
2022/01/07 09:56:31;;;;;;;;;;;-0.20;99.90;;;;;;5072389;28;19912;-73
2022/01/07 09:58:57;;;;;;;;;;;-0.20;99.90;;;;;;5071898;28;19961;-72
2022/01/07 10:01:25;;;;;;;;;;;-0.20;99.90;;;;;;5071080;28;20384;-73
2022/01/07 10:03:50;;;;;;;;;;;-0.30;99.90;;;;;;5070497;28;20364;-72
2022/01/07 10:06:17;;;;;;;;;;;-0.20;99.90;;;;;;5071418;28;19916;-72
2022/01/07 10:08:43;;;;;;;;;;;-0.20;99.90;;;;;;5071480;28;20380;-73
2022/01/07 10:11:09;;;;;;;;;;;-0.20;99.90;;;;;;5071359;28;19909;-73
2022/01/07 10:13:34;;;;;;;;;;;-0.20;99.90;;;;;;5070720;28;20007;-72
2022/01/07 10:16:11;;;;;;;;;;;-0.20;99.90;;;;;;5070954;28;19943;-72
2022/01/07 10:18:37;;;;;;;;;;;-0.20;99.90;;;;;;5071295;28;19912;-72
2022/01/07 10:21:07;;;;;;;;;;;-0.20;99.90;;;;;;5071020;28;20007;-73
2022/01/07 10:23:33;;;;;;;;;;;-0.10;99.90;;;;;;5070872;28;19908;-72
2022/01/07 10:25:58;;;;;;;;;;;-0.10;99.90;;;;;;5070969;28;20160;-72
2022/01/07 10:28:31;;;;;;;;;;;-0.10;99.90;;;;;;5071231;28;19916;-72
2022/01/07 10:31:00;;;;;;;;;;;0.00;99.90;;;;;;5071867;28;19913;-73
2022/01/07 10:33:36;;;;;;;;;;;-0.10;99.90;;;;;;5071391;28;19958;-73
2022/01/07 10:36:01;;;;;;;;;;;-0.10;99.90;;;;;;5071489;28;20285;-73
2022/01/07 10:38:28;;;;;;;;;;;-0.10;99.90;;;;;;5071709;28;19913;-72
2022/01/07 10:40:54;;;;;;;;;;;-0.10;99.90;;;;;;5071417;28;19909;-73
2022/01/07 10:43:21;;;;;;;;;;;-0.10;99.90;;;;;;5071219;28;19919;-72
2022/01/07 10:45:50;;;;;;;;;;;0.00;99.90;;;;;;5075322;28;19917;-72
2022/01/07 10:48:16;;;;;;;;;;;0.00;99.90;;;;;;5075283;28;19919;-72
2022/01/07 10:50:46;;;;;;;;;;;0.00;99.90;;;;;;5075655;28;20277;-73
2022/01/07 10:53:19;;;;;;;;;;;0.00;99.90;;;;;;5057242;28;20365;-72
2022/01/07 10:56:03;;;;;;;;;;;0.00;99.90;;;;;;5075220;28;20004;-72
2022/01/07 10:58:30;;;;;;;;;;;0.00;99.90;;;;;;5075710;28;19995;-72
2022/01/07 11:00:55;;;;;;;;;;;-0.10;99.90;;;;;;5075479;28;20298;-72
2022/01/07 11:03:21;;;;;;;;;;;-0.10;99.90;;;;;;5074221;28;19908;-73
2022/01/07 11:05:46;;;;;;;;;;;-0.10;99.90;;;;;;5074974;28;19909;-72
2022/01/07 11:08:14;;;;;;;;;;;-0.10;99.90;;;;;;5075320;28;19909;-73
2022/01/07 11:10:40;;;;;;;;;;;0.00;99.90;;;;;;5075356;28;20265;-72
2022/01/07 11:13:06;;;;;;;;;;;0.00;99.90;;;;;;5073742;28;19919;-73
2022/01/07 11:15:32;;;;;;;;;;;0.00;99.90;;;;;;5074343;28;19916;-73
2022/01/07 11:17:57;;;;;;;;;;;0.00;99.90;;;;;;5074256;28;19916;-72
2022/01/07 11:20:24;;;;;;;;;;;0.10;99.90;;;;;;5076012;28;20007;-73
2022/01/07 11:22:50;;;;;;;;;;;0.20;99.90;;;;;;5074291;28;19912;-73
2022/01/07 11:25:16;;;;;;;;;;;0.30;99.90;;;;;;5055871;28;19920;-73
2022/01/07 11:27:46;;;;;;;;;;;0.30;99.90;;;;;;5073910;28;20179;-73
2022/01/07 11:30:14;;;;;;;;;;;0.40;99.90;;;;;;5073955;28;19955;-73
2022/01/07 11:32:41;;;;;;;;;;;0.50;99.90;;;;;;5073568;28;19916;-73
2022/01/07 11:35:19;;;;;;;;;;;0.60;99.90;;;;;;5073594;28;19969;-72
2022/01/07 11:37:52;;;;;;;;;;;0.60;99.90;;;;;;5073716;28;19986;-73
2022/01/07 11:40:42;;;;;;;;;;;0.60;99.90;;;;;;5073938;28;19909;-73
2022/01/07 11:43:13;;;;;;;;;;;0.70;99.90;;;;;;5073131;28;19909;-73
2022/01/07 11:45:40;;;;;;;;;;;1.00;99.90;;;;;;5073579;28;19908;-75
2022/01/07 11:48:12;;;;;;;;;;;0.90;99.90;;;;;;5073483;28;19935;-73
2022/01/07 11:51:07;;;;;;;;;;;1.00;99.90;;;;;;5073406;28;20006;-73
2022/01/07 11:53:35;;;;;;;;;;;1.10;99.90;;;;;;5069830;28;19949;-72
2022/01/07 11:56:02;;;;;;;;;;;1.10;99.90;;;;;;5070359;28;19908;-73
2022/01/07 11:58:40;;;;;;;;;;;0.90;99.90;;;;;;5072001;28;19909;-73
2022/01/07 12:01:05;;;;;;;;;;;0.90;99.90;;;;;;5076237;28;19908;-73
2022/01/07 12:03:34;;;;;;;;;;;0.90;99.90;;;;;;5091775;28;19915;-73
2022/01/07 12:06:20;;;;;;;;;;;1.00;99.90;;;;;;5074060;28;19950;-73
2022/01/07 12:09:05;;;;;;;;;;;1.00;99.90;;;;;;5078552;28;20167;-73
2022/01/07 12:11:31;;;;;;;;;;;1.10;99.90;;;;;;5093603;28;20373;-73
2022/01/07 12:13:57;;;;;;;;;;;1.00;99.90;;;;;;5092963;28;19912;-72
2022/01/07 12:16:23;;;;;;;;;;;1.00;99.90;;;;;;5093435;28;20276;-73
2022/01/07 12:18:48;;;;;;;;;;;0.90;99.90;;;;;;5093234;28;20385;-73
2022/01/07 12:21:14;;;;;;;;;;;0.90;99.90;;;;;;5092998;28;19908;-73
2022/01/07 12:23:41;;;;;;;;;;;0.90;99.90;;;;;;5092621;28;20004;-73
2022/01/07 12:26:07;;;;;;;;;;;1.00;99.90;;;;;;5093063;28;19918;-73
2022/01/07 12:28:37;;;;;;;;;;;1.00;99.90;;;;;;5075158;28;19908;-73
2022/01/07 12:31:06;;;;;;;;;;;1.00;99.90;;;;;;5081685;28;19938;-72
2022/01/07 12:33:31;;;;;;;;;;;1.10;99.90;;;;;;5073194;28;19913;-73
2022/01/07 12:35:57;;;;;;;;;;;1.10;99.90;;;;;;5073424;28;19912;-73
2022/01/07 12:38:22;;;;;;;;;;;1.10;99.90;;;;;;5073509;28;20285;-73
2022/01/07 12:40:52;;;;;;;;;;;1.10;99.90;;;;;;5073161;28;19939;-73
2022/01/07 12:43:22;;;;;;;;;;;1.00;99.90;;;;;;5072436;28;20149;-73
2022/01/07 12:46:05;;;;;;;;;;;1.20;99.90;;;;;;5073080;28;19914;-72
2022/01/07 12:48:31;;;;;;;;;;;1.30;99.90;;;;;;5072713;28;20338;-73
2022/01/07 12:51:01;;;;;;;;;;;1.40;99.90;;;;;;5072883;28;19954;-73
2022/01/07 12:53:27;;;;;;;;;;;1.40;99.90;;;;;;5072422;28;19913;-73
2022/01/07 12:55:52;;;;;;;;;;;1.50;99.90;;;;;;5072704;28;20285;-72
2022/01/07 12:58:25;;;;;;;;;;;1.30;99.90;;;;;;5072648;28;19916;-73
2022/01/07 13:00:51;;;;;;;;;;;1.30;99.90;;;;;;5072288;28;19995;-73
2022/01/07 13:03:24;;;;;;;;;;;1.30;99.90;;;;;;5095700;28;19973;-73
2022/01/07 13:05:49;;;;;;;;;;;1.50;99.90;;;;;;5103651;28;19908;-74
2022/01/07 13:08:17;;;;;;;;;;;1.50;99.90;;;;;;5096007;28;19951;-73
2022/01/07 13:10:47;;;;;;;;;;;1.60;99.90;;;;;;5092681;28;20307;-72
2022/01/07 13:13:18;;;;;;;;;;;1.40;99.90;;;;;;5092829;28;19919;-73
2022/01/07 13:15:46;;;;;;;;;;;1.40;99.90;;;;;;5092815;28;19916;-73
2022/01/07 13:18:19;;;;;;;;;;;1.20;99.90;;;;;;5092852;28;19912;-73
2022/01/07 13:20:45;;;;;;;;;;;1.30;99.90;;;;;;5092286;28;20003;-73
2022/01/07 13:23:11;;;;;;;;;;;1.30;99.90;;;;;;5073733;28;20257;-73
2022/01/07 13:25:38;;;;;;;;;;;1.40;99.90;;;;;;5091732;28;19938;-72
2022/01/07 13:28:03;;;;;;;;;;;1.40;99.90;;;;;;5091830;28;19960;-73
2022/01/07 13:30:39;;;;;;;;;;;1.30;99.90;;;;;;5084175;28;20009;-72
2022/01/07 13:33:09;;;;;;;;;;;1.30;99.90;;;;;;5083627;28;19912;-73
2022/01/07 13:35:35;;;;;;;;;;;1.30;99.90;;;;;;5092488;28;20332;-73
2022/01/07 13:38:02;;;;;;;;;;;1.30;99.90;;;;;;5091992;28;20359;-73
2022/01/07 13:40:29;;;;;;;;;;;1.30;99.90;;;;;;5091738;28;19908;-72
2022/01/07 13:43:11;;;;;;;;;;;1.30;99.90;;;;;;5092532;28;19944;-73
2022/01/07 13:45:37;;;;;;;;;;;1.20;99.90;;;;;;5092105;28;19912;-73
2022/01/07 13:48:04;;;;;;;;;;;1.20;99.90;;;;;;5092566;28;20284;-73
2022/01/07 13:50:31;;;;;;;;;;;1.20;99.90;;;;;;5091967;28;19912;-73
2022/01/07 13:52:57;;;;;;;;;;;1.20;99.90;;;;;;5091629;28;19912;-73
2022/01/07 13:55:29;;;;;;;;;;;1.20;99.90;;;;;;5091429;28;19915;-72
2022/01/07 13:58:05;;;;;;;;;;;1.00;99.90;;;;;;5092231;28;19909;-72
2022/01/07 14:00:31;;;;;;;;;;;0.90;99.90;;;;;;5083789;28;19909;-73
2022/01/07 14:02:56;;;;;;;;;;;0.90;99.90;;;;;;5071263;28;20270;-73
2022/01/07 14:05:22;;;;;;;;;;;1.00;99.90;;;;;;5070946;28;19913;-73
2022/01/07 14:07:49;;;;;;;;;;;1.00;99.90;;;;;;5071221;28;19916;-72
2022/01/07 14:10:14;;;;;;;;;;;1.00;99.90;;;;;;5071076;28;19908;-73
2022/01/07 14:13:00;;;;;;;;;;;1.00;99.90;;;;;;5071396;28;20281;-71
2022/01/07 14:15:30;;;;;;;;;;;1.10;99.90;;;;;;5070952;28;19924;-72
2022/01/07 14:18:03;;;;;;;;;;;1.20;99.90;;;;;;5073193;28;20337;-71
2022/01/07 14:20:37;;;;;;;;;;;1.20;99.90;;;;;;5075317;28;20358;-72
2022/01/07 14:23:02;;;;;;;;;;;1.20;99.90;;;;;;5074994;28;20599;-72
2022/01/07 14:25:28;;;;;;;;;;;1.30;99.90;;;;;;5075164;28;19917;-72
2022/01/07 14:27:53;;;;;;;;;;;1.20;99.90;;;;;;5075038;28;19916;-72
2022/01/07 14:30:19;;;;;;;;;;;1.20;99.90;;;;;;5074796;28;19999;-72